Floyd, VA (24091)

6:18 AM EST on February 07, 2016 (GMT -0500)
Sandy Flat Farm | | Change Station
CLOSE
Current Station
Personal Weather Station
Location: Floyd, VA
Elevation: 2454 ft
Nearby Weather Stations

Elev 2454 ft 36.94 °N, 80.25 °W | Updated 46 seconds ago

Clear
Clear
23.2 °F
Feels Like 23 °F
N
0.0
Wind Variable Wind from WSW

Today
High -- | Low -- °F
--% Chance of Precip.
Yesterday
High -- | Low -- °F
Precip. -- in
Pressure 30.15 in
Visibility 10.0 miles
Clouds Clear
Windchill 23 °F
Dew Point 20 °F
Humidity 88%
Rainfall 0.00 in
Snow Depth Not available.
7:18 AM 5:52 PM
Waning Crescent, 2% visible
METAR KBCB 071055Z AUTO 00000KT 10SM CLR M03/M05 A3015 RMK AO2 T10351055
Pressure 30.15 in
Visibility 10.0 miles
Clouds Clear
Windchill 23 °F
Dew Point 20 °F
Humidity 88%
Rainfall 0.00 in
Snow Depth Not available.
7:18 AM 5:52 PM
Waning Crescent, 2% visible
METAR KBCB 071055Z AUTO 00000KT 10SM CLR M03/M05 A3015 RMK AO2 T10351055

10-Day Weather Forecast

Almanac

Astronomy

Feb. 07, 2016 Rise Set
Actual Time
Civil Twilight
Nautical Twilight
Astronomical Twilight
Moon
Length of Visible Light
Length of Day
Tomorrow will be .
, % of the Moon is Illuminated

Today's Extremes

State Highs State Lows

Community

WunderPhotos

Upload Photos

1,891,170 photos uploaded!

WunderBlog® & News

Nearby

Air Quality

  Air Quality AQ Index Pollutant
Not available.

Snow Depth

Station Depth Elevation

Earthquake Activity

City Distance Mag. Time & Date
Minimum magnitude displayed is 2.5.

Coastal Water Temperatures

Place Temperature

Stations

Nearby Weather Stations

Station Location Temp. Windchill Dew Point Humidity Wind Precip. Elev Updated Type
                   

Watches & Warnings

There are currently no watches in effect.